Time;durP1;ratioP1;P1;durP2;ratioP2;P2;SDS_P1;SDS_P2;PMS_P1;PMS_P2;Temp;Humidity;BMP_temperature;BMP_pressure;BME280_temperature;BME280_humidity;BME280_pressure;Samples;Min_cycle;Max_cycle;Signal;HPM_P1;HPM_P2
2021/07/25 00:01:22;;;;;;;;;;;20.20;99.90;;;;;;5032743;28;19975;-66
2021/07/25 00:03:47;;;;;;;;;;;20.20;99.90;;;;;;5033632;28;19905;-67
2021/07/25 00:06:14;;;;;;;;;;;20.20;99.90;;;;;;5033884;28;19905;-67
2021/07/25 00:08:39;;;;;;;;;;;20.20;99.90;;;;;;5034055;28;20081;-67
2021/07/25 00:11:05;;;;;;;;;;;20.20;99.90;;;;;;5034055;28;19989;-67
2021/07/25 00:13:31;;;;;;;;;;;20.10;99.90;;;;;;5033035;28;20379;-67
2021/07/25 00:15:57;;;;;;;;;;;20.10;99.90;;;;;;5034331;28;19996;-67
2021/07/25 00:18:22;;;;;;;;;;;20.10;99.90;;;;;;5034254;28;19943;-67
2021/07/25 00:20:48;;;;;;;;;;;20.00;99.90;;;;;;5035618;28;20416;-67
2021/07/25 00:23:18;;;;;;;;;;;20.00;99.90;;;;;;5032940;28;19905;-67
2021/07/25 00:25:44;;;;;;;;;;;20.00;99.90;;;;;;5033857;28;19932;-67
2021/07/25 00:28:14;;;;;;;;;;;20.00;99.90;;;;;;5033735;28;19916;-67
2021/07/25 00:30:40;;;;;;;;;;;20.00;99.90;;;;;;5033649;28;19958;-68
2021/07/25 00:33:05;;;;;;;;;;;20.00;99.90;;;;;;5033215;28;19987;-67
2021/07/25 00:35:31;;;;;;;;;;;20.00;99.90;;;;;;5033149;28;19905;-68
2021/07/25 00:37:56;;;;;;;;;;;20.00;99.90;;;;;;5033331;28;19940;-67
2021/07/25 00:40:29;;;;;;;;;;;20.00;99.90;;;;;;5033165;28;20012;-68
2021/07/25 00:42:54;;;;;;;;;;;20.10;99.90;;;;;;5033210;28;20346;-67
2021/07/25 00:45:20;;;;;;;;;;;20.10;99.90;;;;;;5033044;28;19905;-67
2021/07/25 00:47:46;;;;;;;;;;;20.20;99.90;;;;;;5033235;28;19916;-68
2021/07/25 00:50:12;;;;;;;;;;;20.20;99.90;;;;;;5031865;28;19905;-67
2021/07/25 00:52:38;;;;;;;;;;;20.10;99.90;;;;;;5033240;28;19931;-67
2021/07/25 00:55:04;;;;;;;;;;;20.10;99.90;;;;;;5032800;28;19962;-67
2021/07/25 00:57:30;;;;;;;;;;;20.10;99.90;;;;;;5033172;28;20377;-67
2021/07/25 00:59:56;;;;;;;;;;;20.30;99.90;;;;;;5032858;28;19905;-67
2021/07/25 01:02:23;;;;;;;;;;;20.30;99.90;;;;;;5032915;28;19984;-67
2021/07/25 01:04:57;;;;;;;;;;;20.30;99.90;;;;;;5032773;28;19915;-67
2021/07/25 01:07:28;;;;;;;;;;;20.20;99.90;;;;;;5031724;28;19905;-67
2021/07/25 01:09:57;;;;;;;;;;;20.20;99.90;;;;;;5031716;28;19994;-67
2021/07/25 01:12:22;;;;;;;;;;;20.10;99.90;;;;;;5032884;28;19928;-68
2021/07/25 01:14:49;;;;;;;;;;;20.10;99.90;;;;;;5032758;28;20366;-67
2021/07/25 01:17:27;;;;;;;;;;;20.10;99.90;;;;;;5032715;28;19920;-67
2021/07/25 01:19:53;;;;;;;;;;;20.10;99.90;;;;;;5033053;28;19912;-66
2021/07/25 01:22:19;;;;;;;;;;;20.20;99.90;;;;;;5032729;28;19924;-66
2021/07/25 01:24:44;;;;;;;;;;;20.20;99.90;;;;;;5033193;28;20007;-66
2021/07/25 01:27:19;;;;;;;;;;;20.20;99.90;;;;;;5036652;28;19912;-66
2021/07/25 01:29:45;;;;;;;;;;;20.10;99.90;;;;;;5036783;28;20000;-66
2021/07/25 01:32:11;;;;;;;;;;;20.10;99.90;;;;;;5035648;28;19953;-68
2021/07/25 01:34:37;;;;;;;;;;;20.10;99.90;;;;;;5036493;28;19912;-68
2021/07/25 01:37:03;;;;;;;;;;;20.20;99.90;;;;;;5036583;28;19944;-67
2021/07/25 01:39:28;;;;;;;;;;;20.20;99.90;;;;;;5036447;28;20370;-67
2021/07/25 01:41:54;;;;;;;;;;;20.20;99.90;;;;;;5036535;28;20273;-67
2021/07/25 01:44:19;;;;;;;;;;;20.20;99.90;;;;;;5036664;28;19920;-67
2021/07/25 01:46:45;;;;;;;;;;;20.20;99.90;;;;;;5036369;28;19947;-67
2021/07/25 01:49:11;;;;;;;;;;;20.20;99.90;;;;;;5036427;28;19905;-68
2021/07/25 01:51:36;;;;;;;;;;;20.30;99.90;;;;;;5036423;28;20427;-67
2021/07/25 01:54:02;;;;;;;;;;;20.40;99.90;;;;;;5037075;28;19905;-66
2021/07/25 01:56:28;;;;;;;;;;;20.40;99.90;;;;;;5036807;28;19905;-67
2021/07/25 01:58:53;;;;;;;;;;;20.40;99.90;;;;;;5036596;28;20347;-66
2021/07/25 02:01:19;;;;;;;;;;;20.30;99.90;;;;;;5035646;28;19945;-67
2021/07/25 02:03:44;;;;;;;;;;;20.30;99.90;;;;;;5037240;28;19912;-67
2021/07/25 02:06:10;;;;;;;;;;;20.20;99.90;;;;;;5041165;28;19944;-67
2021/07/25 02:08:35;;;;;;;;;;;20.20;99.90;;;;;;5034987;28;19944;-67
2021/07/25 02:11:01;;;;;;;;;;;20.20;99.90;;;;;;5036197;28;19912;-66
2021/07/25 02:13:27;;;;;;;;;;;20.30;99.90;;;;;;5034588;28;19908;-66
2021/07/25 02:15:52;;;;;;;;;;;20.20;99.90;;;;;;5035885;28;20286;-66
2021/07/25 02:18:18;;;;;;;;;;;20.20;99.90;;;;;;5035771;28;19905;-66
2021/07/25 02:20:44;;;;;;;;;;;20.10;99.90;;;;;;5035673;28;20252;-66
2021/07/25 02:23:10;;;;;;;;;;;20.10;99.90;;;;;;5034915;28;19995;-66
2021/07/25 02:25:37;;;;;;;;;;;20.10;99.90;;;;;;5034560;28;19961;-65
2021/07/25 02:28:03;;;;;;;;;;;20.10;99.90;;;;;;5036006;28;19955;-66
2021/07/25 02:30:29;;;;;;;;;;;20.10;99.90;;;;;;5035861;28;19959;-67
2021/07/25 02:32:54;;;;;;;;;;;20.20;99.90;;;;;;5035364;28;19932;-67
2021/07/25 02:35:20;;;;;;;;;;;20.10;99.90;;;;;;5035329;28;19905;-66
2021/07/25 02:37:45;;;;;;;;;;;20.10;99.90;;;;;;5034581;28;19905;-66
2021/07/25 02:40:11;;;;;;;;;;;20.20;99.90;;;;;;5036043;28;19959;-67
2021/07/25 02:42:37;;;;;;;;;;;20.10;99.90;;;;;;5035795;28;19909;-66
2021/07/25 02:45:02;;;;;;;;;;;20.20;99.90;;;;;;5035524;28;19905;-66
2021/07/25 02:47:28;;;;;;;;;;;20.10;99.90;;;;;;5035506;28;19920;-66
2021/07/25 02:49:53;;;;;;;;;;;20.10;99.90;;;;;;5035818;28;19912;-67
2021/07/25 02:52:19;;;;;;;;;;;20.10;99.90;;;;;;5033907;28;19932;-67
2021/07/25 02:54:44;;;;;;;;;;;20.20;99.90;;;;;;5035022;28;19974;-67
2021/07/25 02:57:10;;;;;;;;;;;20.20;99.90;;;;;;5035702;28;19909;-67
2021/07/25 02:59:35;;;;;;;;;;;20.20;99.90;;;;;;5034929;28;19931;-67
2021/07/25 03:02:01;;;;;;;;;;;20.20;99.90;;;;;;5034926;28;20003;-67
2021/07/25 03:04:26;;;;;;;;;;;20.20;99.90;;;;;;5034905;28;19905;-67
2021/07/25 03:06:52;;;;;;;;;;;20.20;99.90;;;;;;5033601;28;19905;-67
2021/07/25 03:09:17;;;;;;;;;;;20.20;99.90;;;;;;5035432;28;19911;-67
2021/07/25 03:11:43;;;;;;;;;;;20.20;99.90;;;;;;5034800;28;19905;-67
2021/07/25 03:14:08;;;;;;;;;;;20.20;99.90;;;;;;5035195;28;20358;-67
2021/07/25 03:16:34;;;;;;;;;;;20.20;99.90;;;;;;5034660;28;20004;-67
2021/07/25 03:18:59;;;;;;;;;;;20.20;99.90;;;;;;5034596;28;19916;-67
2021/07/25 03:21:25;;;;;;;;;;;20.30;99.90;;;;;;5034548;28;19916;-67
2021/07/25 03:23:50;;;;;;;;;;;20.30;99.90;;;;;;5033140;28;20362;-67
2021/07/25 03:26:16;;;;;;;;;;;20.30;99.90;;;;;;5034503;28;19911;-66
2021/07/25 03:28:42;;;;;;;;;;;20.30;99.90;;;;;;5034444;28;20329;-66
2021/07/25 03:31:07;;;;;;;;;;;20.20;99.90;;;;;;5034725;28;19912;-68
2021/07/25 03:33:33;;;;;;;;;;;20.20;99.90;;;;;;5034476;28;20000;-67
2021/07/25 03:35:58;;;;;;;;;;;20.20;99.90;;;;;;5034268;28;19909;-67
2021/07/25 03:38:25;;;;;;;;;;;20.20;99.90;;;;;;5032994;28;19938;-67
2021/07/25 03:40:51;;;;;;;;;;;20.10;99.90;;;;;;5033067;28;19916;-66
2021/07/25 03:43:16;;;;;;;;;;;20.10;99.90;;;;;;5034708;28;19909;-67
2021/07/25 03:45:43;;;;;;;;;;;20.10;99.90;;;;;;5035049;28;19948;-66
2021/07/25 03:48:09;;;;;;;;;;;20.20;99.90;;;;;;5034004;28;19956;-66
2021/07/25 03:50:35;;;;;;;;;;;20.20;99.90;;;;;;5034069;28;19905;-67
2021/07/25 03:53:00;;;;;;;;;;;20.20;99.90;;;;;;5035056;28;19951;-66
2021/07/25 03:55:26;;;;;;;;;;;20.20;99.90;;;;;;5032623;28;19933;-67
2021/07/25 03:57:52;;;;;;;;;;;20.30;99.90;;;;;;5034050;28;19909;-67
2021/07/25 04:00:17;;;;;;;;;;;20.30;99.90;;;;;;5033925;28;19945;-67
2021/07/25 04:02:43;;;;;;;;;;;20.40;99.90;;;;;;5033884;28;20350;-67
2021/07/25 04:05:09;;;;;;;;;;;20.30;99.90;;;;;;5033909;28;20316;-67
2021/07/25 04:07:34;;;;;;;;;;;20.40;99.90;;;;;;5032356;28;19905;-67
2021/07/25 04:10:00;;;;;;;;;;;20.40;99.90;;;;;;5033722;28;20277;-67
2021/07/25 04:12:25;;;;;;;;;;;20.30;99.90;;;;;;5033969;28;19905;-67
2021/07/25 04:14:51;;;;;;;;;;;20.30;99.90;;;;;;5033916;28;19905;-67
2021/07/25 04:17:16;;;;;;;;;;;20.20;99.90;;;;;;5032410;28;20419;-67
2021/07/25 04:19:42;;;;;;;;;;;20.30;99.90;;;;;;5033590;28;19931;-67
2021/07/25 04:22:07;;;;;;;;;;;20.20;99.90;;;;;;5032073;28;20283;-67
2021/07/25 04:24:33;;;;;;;;;;;20.30;99.90;;;;;;5033687;28;20047;-66
2021/07/25 04:26:58;;;;;;;;;;;20.40;99.90;;;;;;5033535;28;19909;-66
2021/07/25 04:29:24;;;;;;;;;;;20.30;99.90;;;;;;5033464;28;20362;-66
2021/07/25 04:31:50;;;;;;;;;;;20.20;99.90;;;;;;5033493;28;19905;-67
2021/07/25 04:34:15;;;;;;;;;;;20.20;99.90;;;;;;5034033;28;19912;-66
2021/07/25 04:36:43;;;;;;;;;;;20.20;99.90;;;;;;5033648;28;20277;-67
2021/07/25 04:39:09;;;;;;;;;;;20.20;99.90;;;;;;5031950;28;19909;-67
2021/07/25 04:41:36;;;;;;;;;;;20.50;99.90;;;;;;5033200;28;19959;-67
2021/07/25 04:44:14;;;;;;;;;;;20.60;99.90;;;;;;5033232;28;20408;-67
2021/07/25 04:46:45;;;;;;;;;;;20.50;99.90;;;;;;5033861;28;19955;-67
2021/07/25 04:49:11;;;;;;;;;;;20.40;99.90;;;;;;5034877;28;19928;-66
2021/07/25 04:51:38;;;;;;;;;;;20.40;99.90;;;;;;5033308;28;19912;-66
2021/07/25 04:54:05;;;;;;;;;;;20.30;99.90;;;;;;5033156;28;19912;-67
2021/07/25 04:56:32;;;;;;;;;;;20.30;99.90;;;;;;5032088;28;20008;-66
2021/07/25 04:59:04;;;;;;;;;;;20.40;99.90;;;;;;5033676;28;19905;-66
2021/07/25 05:01:34;;;;;;;;;;;20.30;99.90;;;;;;5036681;28;19917;-67
2021/07/25 05:04:01;;;;;;;;;;;20.30;99.90;;;;;;5037724;28;20350;-67
2021/07/25 05:06:28;;;;;;;;;;;20.30;99.90;;;;;;5037195;28;19905;-66
2021/07/25 05:08:54;;;;;;;;;;;20.30;99.90;;;;;;5036949;28;19905;-66
2021/07/25 05:11:21;;;;;;;;;;;20.20;99.90;;;;;;5037466;28;19913;-67
2021/07/25 05:13:47;;;;;;;;;;;20.20;99.90;;;;;;5037318;28;20342;-66
2021/07/25 05:16:21;;;;;;;;;;;20.20;99.90;;;;;;5036995;28;19905;-67
2021/07/25 05:18:56;;;;;;;;;;;20.20;99.90;;;;;;5035694;28;19912;-67
2021/07/25 05:21:23;;;;;;;;;;;20.20;99.90;;;;;;5036806;28;20388;-66
2021/07/25 05:23:51;;;;;;;;;;;20.20;99.90;;;;;;5036071;28;20276;-67
2021/07/25 05:26:22;;;;;;;;;;;20.20;99.90;;;;;;5036899;28;19905;-67
2021/07/25 05:28:48;;;;;;;;;;;20.20;99.90;;;;;;5035457;28;19905;-67
2021/07/25 05:31:13;;;;;;;;;;;20.20;99.90;;;;;;5037098;28;20312;-66
2021/07/25 05:33:39;;;;;;;;;;;20.20;99.90;;;;;;5036863;28;19995;-66
2021/07/25 05:36:05;;;;;;;;;;;20.30;99.90;;;;;;5036622;28;20306;-66
2021/07/25 05:38:30;;;;;;;;;;;20.40;99.90;;;;;;5036620;28;19905;-68
2021/07/25 05:40:55;;;;;;;;;;;20.40;99.90;;;;;;5037560;28;19909;-69
2021/07/25 05:43:21;;;;;;;;;;;20.40;99.90;;;;;;5038207;28;19905;-67
2021/07/25 05:45:46;;;;;;;;;;;20.50;99.90;;;;;;5035135;28;19920;-66
2021/07/25 05:48:12;;;;;;;;;;;20.60;99.90;;;;;;5036651;28;19905;-66
2021/07/25 05:50:37;;;;;;;;;;;20.40;99.90;;;;;;5036501;28;19905;-67
2021/07/25 05:53:03;;;;;;;;;;;20.40;99.90;;;;;;5040238;28;19905;-67
2021/07/25 05:55:30;;;;;;;;;;;20.40;99.90;;;;;;5036658;28;19913;-67
2021/07/25 05:57:56;;;;;;;;;;;20.40;99.90;;;;;;5036338;28;19999;-66
2021/07/25 06:00:22;;;;;;;;;;;20.50;99.90;;;;;;5036146;28;19952;-67
2021/07/25 06:02:51;;;;;;;;;;;20.60;99.90;;;;;;5036252;28;19905;-67
2021/07/25 06:05:17;;;;;;;;;;;20.60;99.90;;;;;;5035200;28;19920;-66
2021/07/25 06:07:42;;;;;;;;;;;20.70;99.90;;;;;;5037205;28;19905;-66
2021/07/25 06:10:08;;;;;;;;;;;20.80;99.90;;;;;;5037001;28;20251;-66
2021/07/25 06:12:35;;;;;;;;;;;21.00;99.90;;;;;;5036696;28;19905;-67
2021/07/25 06:15:01;;;;;;;;;;;21.00;99.90;;;;;;5036511;28;19908;-67
2021/07/25 06:17:26;;;;;;;;;;;21.00;99.90;;;;;;5036346;28;20328;-67
2021/07/25 06:19:52;;;;;;;;;;;21.00;99.90;;;;;;5035125;28;19912;-66
2021/07/25 06:22:17;;;;;;;;;;;21.00;99.90;;;;;;5036232;28;19959;-66
2021/07/25 06:24:42;;;;;;;;;;;21.00;99.90;;;;;;5035928;28;20399;-65
2021/07/25 06:27:08;;;;;;;;;;;21.00;99.90;;;;;;5035632;28;19909;-66
2021/07/25 06:29:33;;;;;;;;;;;21.10;99.90;;;;;;5035958;28;19905;-67
2021/07/25 06:31:59;;;;;;;;;;;21.10;99.90;;;;;;5035616;28;19909;-65
2021/07/25 06:34:24;;;;;;;;;;;21.20;99.90;;;;;;5035874;28;19912;-65
2021/07/25 06:36:50;;;;;;;;;;;21.30;99.90;;;;;;5035861;28;19912;-67
2021/07/25 06:39:15;;;;;;;;;;;21.20;99.90;;;;;;5035739;28;19909;-69
2021/07/25 06:41:41;;;;;;;;;;;21.20;99.90;;;;;;5035562;28;20002;-68
2021/07/25 06:44:06;;;;;;;;;;;21.20;99.90;;;;;;5037404;28;20004;-68
2021/07/25 06:46:33;;;;;;;;;;;21.20;99.90;;;;;;5035740;28;19927;-69
2021/07/25 06:48:58;;;;;;;;;;;21.20;99.90;;;;;;5035521;28;20304;-67
2021/07/25 06:51:24;;;;;;;;;;;21.30;99.90;;;;;;5034029;28;20011;-69
2021/07/25 06:53:50;;;;;;;;;;;21.30;99.90;;;;;;5035738;28;19909;-68
2021/07/25 06:56:15;;;;;;;;;;;21.30;99.90;;;;;;5035410;28;20396;-68
2021/07/25 06:58:42;;;;;;;;;;;21.40;99.90;;;;;;5033653;28;19906;-67
2021/07/25 07:01:09;;;;;;;;;;;21.50;99.90;;;;;;5034996;28;19909;-68
2021/07/25 07:03:36;;;;;;;;;;;21.80;99.90;;;;;;5035406;28;19944;-68
2021/07/25 07:06:05;;;;;;;;;;;21.90;99.90;;;;;;5035445;28;19905;-68
2021/07/25 07:08:31;;;;;;;;;;;22.10;99.90;;;;;;5033618;28;19905;-69
2021/07/25 07:10:56;;;;;;;;;;;22.20;99.90;;;;;;5034753;28;19966;-68
2021/07/25 07:13:22;;;;;;;;;;;22.10;99.90;;;;;;5033542;28;20288;-68
2021/07/25 07:15:48;;;;;;;;;;;22.10;99.90;;;;;;5034803;28;19905;-69
2021/07/25 07:18:13;;;;;;;;;;;22.20;99.90;;;;;;5034746;28;19905;-68
2021/07/25 07:20:39;;;;;;;;;;;22.00;99.90;;;;;;5034420;28;20015;-68
2021/07/25 07:23:06;;;;;;;;;;;22.00;99.90;;;;;;5034218;28;19913;-68
2021/07/25 07:25:33;;;;;;;;;;;22.20;99.90;;;;;;5034562;28;19905;-68
2021/07/25 07:27:59;;;;;;;;;;;22.20;99.90;;;;;;5034456;28;19909;-68
2021/07/25 07:30:24;;;;;;;;;;;22.20;99.90;;;;;;5034662;28;19963;-68
2021/07/25 07:32:50;;;;;;;;;;;22.30;99.90;;;;;;5034259;28;19963;-68
2021/07/25 07:35:20;;;;;;;;;;;22.20;99.90;;;;;;5035707;28;19913;-68
2021/07/25 07:37:47;;;;;;;;;;;22.30;99.90;;;;;;5034468;28;20340;-69
2021/07/25 07:40:13;;;;;;;;;;;22.20;99.90;;;;;;5032869;28;19913;-68
2021/07/25 07:42:38;;;;;;;;;;;22.40;99.90;;;;;;5034442;28;19912;-68
2021/07/25 07:45:04;;;;;;;;;;;22.60;99.90;;;;;;5034207;28;20277;-69
2021/07/25 07:47:30;;;;;;;;;;;22.80;99.90;;;;;;5034283;28;19936;-68
2021/07/25 07:49:55;;;;;;;;;;;22.70;99.90;;;;;;5034475;28;20302;-68
2021/07/25 07:52:21;;;;;;;;;;;22.70;99.90;;;;;;5034748;28;19912;-68
2021/07/25 07:54:46;;;;;;;;;;;22.90;99.90;;;;;;5033199;28;20404;-68
2021/07/25 07:57:12;;;;;;;;;;;23.10;99.90;;;;;;5033158;28;20342;-68
2021/07/25 07:59:38;;;;;;;;;;;23.10;99.90;;;;;;5034237;28;19905;-65
2021/07/25 08:02:03;;;;;;;;;;;23.20;99.90;;;;;;5034491;28;19923;-66
2021/07/25 08:04:29;;;;;;;;;;;23.30;99.90;;;;;;5034430;28;19913;-67
2021/07/25 08:06:54;;;;;;;;;;;23.50;99.90;;;;;;5033969;28;19905;-66
2021/07/25 08:09:20;;;;;;;;;;;23.50;99.90;;;;;;5032611;28;20061;-69
2021/07/25 08:11:46;;;;;;;;;;;23.50;99.90;;;;;;5032520;28;20337;-67
2021/07/25 08:14:16;;;;;;;;;;;23.90;99.90;;;;;;5032502;28;20308;-66
2021/07/25 08:16:42;;;;;;;;;;;24.90;99.90;;;;;;5034174;28;19912;-68
2021/07/25 08:19:08;;;;;;;;;;;26.70;99.90;;;;;;5032228;28;19905;-68
2021/07/25 08:21:34;;;;;;;;;;;27.70;99.90;;;;;;5032711;28;19909;-68
2021/07/25 08:23:59;;;;;;;;;;;27.20;99.90;;;;;;5033936;28;19915;-67
2021/07/25 08:26:25;;;;;;;;;;;26.40;99.90;;;;;;5034935;28;19905;-67
2021/07/25 08:28:51;;;;;;;;;;;27.10;99.90;;;;;;5033642;28;19905;-67
2021/07/25 08:31:16;;;;;;;;;;;28.20;99.90;;;;;;5033598;28;20023;-67
2021/07/25 08:33:42;;;;;;;;;;;28.80;98.30;;;;;;5033353;28;20285;-67
2021/07/25 08:36:07;;;;;;;;;;;29.20;97.50;;;;;;5032747;28;19905;-68
2021/07/25 08:38:33;;;;;;;;;;;29.40;96.70;;;;;;5033441;28;19909;-67
2021/07/25 08:41:09;;;;;;;;;;;28.90;97.00;;;;;;5033385;28;19923;-68
2021/07/25 08:43:36;;;;;;;;;;;28.10;97.60;;;;;;5033565;28;20000;-69
2021/07/25 08:46:07;;;;;;;;;;;27.40;98.60;;;;;;5033358;28;19937;-67
2021/07/25 08:48:37;;;;;;;;;;;27.00;99.80;;;;;;5033517;28;19928;-67
2021/07/25 08:51:03;;;;;;;;;;;28.40;98.30;;;;;;5033402;28;19955;-67
2021/07/25 08:53:33;;;;;;;;;;;30.50;95.60;;;;;;5033267;28;20259;-68
2021/07/25 08:55:59;;;;;;;;;;;30.90;94.00;;;;;;5033125;28;19923;-68
2021/07/25 08:58:27;;;;;;;;;;;29.90;93.90;;;;;;5033432;28;19983;-69
2021/07/25 09:00:52;;;;;;;;;;;29.10;94.60;;;;;;5031841;28;19975;-68
2021/07/25 09:03:19;;;;;;;;;;;28.40;96.10;;;;;;5033424;28;20370;-68
2021/07/25 09:05:46;;;;;;;;;;;28.00;96.90;;;;;;5033112;28;19947;-68
2021/07/25 09:08:12;;;;;;;;;;;29.20;95.80;;;;;;5033538;28;19905;-68
2021/07/25 09:10:38;;;;;;;;;;;31.00;93.60;;;;;;5035552;28;19905;-68
2021/07/25 09:13:03;;;;;;;;;;;32.10;91.00;;;;;;5031874;28;20258;-68
2021/07/25 09:15:30;;;;;;;;;;;31.80;90.60;;;;;;5032983;28;20512;-68
2021/07/25 09:17:57;;;;;;;;;;;31.00;90.90;;;;;;5035818;28;19905;-68
2021/07/25 09:20:22;;;;;;;;;;;30.60;91.40;;;;;;5033393;28;20039;-68
2021/07/25 09:22:48;;;;;;;;;;;31.10;90.90;;;;;;5031894;28;20004;-68
2021/07/25 09:25:25;;;;;;;;;;;31.80;90.10;;;;;;5033555;28;19934;-68
2021/07/25 09:27:54;;;;;;;;;;;33.00;87.20;;;;;;5033445;28;20396;-68
2021/07/25 09:30:20;;;;;;;;;;;34.60;82.70;;;;;;5032888;28;20463;-68
2021/07/25 09:32:46;;;;;;;;;;;35.10;79.00;;;;;;5033004;28;20302;-68
2021/07/25 09:35:27;;;;;;;;;;;34.60;78.40;;;;;;5033385;28;19905;-68
2021/07/25 09:37:53;;;;;;;;;;;33.70;79.80;;;;;;5033009;28;19932;-68
2021/07/25 09:40:26;;;;;;;;;;;32.20;82.50;;;;;;5032627;28;20250;-69
2021/07/25 09:43:07;;;;;;;;;;;31.30;83.70;;;;;;5031210;28;19913;-69
2021/07/25 09:45:33;;;;;;;;;;;31.00;85.20;;;;;;5032905;28;19963;-68
2021/07/25 09:48:10;;;;;;;;;;;31.80;84.90;;;;;;5036464;28;19905;-68
2021/07/25 09:50:36;;;;;;;;;;;32.10;82.50;;;;;;5036295;28;19905;-68
2021/07/25 09:53:01;;;;;;;;;;;31.60;82.00;;;;;;5036088;28;19905;-68
2021/07/25 09:55:30;;;;;;;;;;;31.10;83.60;;;;;;5036089;28;19952;-69
2021/07/25 09:57:55;;;;;;;;;;;30.80;85.20;;;;;;5036657;28;19988;-67
2021/07/25 10:00:21;;;;;;;;;;;30.70;85.90;;;;;;5036322;28;20047;-67
2021/07/25 10:02:47;;;;;;;;;;;31.80;85.00;;;;;;5036116;28;20255;-66
2021/07/25 10:05:13;;;;;;;;;;;33.00;81.30;;;;;;5035887;28;19905;-65
2021/07/25 10:07:39;;;;;;;;;;;32.80;80.70;;;;;;5038885;28;19905;-65
2021/07/25 10:10:06;;;;;;;;;;;32.60;80.80;;;;;;5035749;28;19906;-68
2021/07/25 10:12:32;;;;;;;;;;;31.70;82.30;;;;;;5034587;28;19905;-68
2021/07/25 10:14:58;;;;;;;;;;;31.60;82.50;;;;;;5036136;28;19912;-67
2021/07/25 10:17:28;;;;;;;;;;;30.60;83.30;;;;;;5036208;28;19944;-68
2021/07/25 10:19:54;;;;;;;;;;;31.80;82.70;;;;;;5034402;28;20266;-68
2021/07/25 10:22:20;;;;;;;;;;;32.60;80.50;;;;;;5034633;28;19920;-68
2021/07/25 10:24:49;;;;;;;;;;;32.90;79.20;;;;;;5035953;28;19932;-68
2021/07/25 10:27:19;;;;;;;;;;;33.20;78.20;;;;;;5035644;28;19905;-68
2021/07/25 10:29:45;;;;;;;;;;;34.00;74.50;;;;;;5034268;28;20000;-68
2021/07/25 10:32:11;;;;;;;;;;;35.30;73.60;;;;;;5035463;28;19927;-68
2021/07/25 10:34:38;;;;;;;;;;;36.80;70.90;;;;;;5035179;28;19905;-69
2021/07/25 10:37:04;;;;;;;;;;;37.30;67.90;;;;;;5035413;28;19905;-68
2021/07/25 10:39:31;;;;;;;;;;;37.60;66.40;;;;;;5034886;28;19905;-68
2021/07/25 10:42:01;;;;;;;;;;;38.20;65.50;;;;;;5035576;28;19909;-69
2021/07/25 10:44:28;;;;;;;;;;;39.10;63.00;;;;;;5035054;28;20315;-69
